^^
Station Historical Data
Daily Summary for January 15, 2017 Units:  English    Metric   Both
« Previous Day
Next Day »
Daily Weekly Monthly Yearly Custom
  High: Low: Average:
Temperature: 36.4 °F 22.3 °F 28.5 °F
Dew Point: 27.2 °F 18.8 °F 23.1 °F
Humidity: 94 % 59 % 81 %
Wind Speed: 8.4 mph 0.0 mph 1.5 mph
Wind Gust: 12.7 mph - -
Wind:- - WNW
Pressure: 30.46 in 30.32 in -
Precipitation: 0.08 in    
Historical Graphs
 
 
Tabular Data for January 15, 2017
Time Temperature Dew Point Pressure Wind Wind Speed Wind Gust Humidity Rainfall Rate (Hourly) solar Conditions
00:03 28.6 °F 26.8 °F 30.35 in Calm     93 % 0.00 in 0.0 W/m2 CLR
00:08 28.7 °F 26.9 °F 30.35 in Calm   1.2 mph 93 % 0.00 in 0.0 W/m2 CLR
00:13 28.7 °F 26.9 °F 30.34 in Calm     93 % 0.00 in 0.0 W/m2 CLR
00:18 28.7 °F 26.9 °F 30.34 in Calm     93 % 0.00 in 0.0 W/m2 CLR
00:23 28.7 °F 26.9 °F 30.34 in Calm     93 % 0.00 in 0.0 W/m2 CLR
00:28 28.7 °F 26.9 °F 30.34 in Calm     93 % 0.00 in 0.0 W/m2 CLR
00:33 28.6 °F 26.8 °F 30.34 in Calm     93 % 0.00 in 0.0 W/m2 CLR
00:38 28.7 °F 26.9 °F 30.34 in Calm     93 % 0.00 in 0.0 W/m2 CLR
00:43 28.7 °F 26.9 °F 30.34 in Calm     93 % 0.00 in 0.0 W/m2 CLR
00:48 28.7 °F 26.9 °F 30.33 in Calm     93 % 0.00 in 0.0 W/m2 CLR
00:53 28.8 °F 27.0 °F 30.34 in Calm     93 % 0.00 in 0.0 W/m2 CLR
00:58 28.8 °F 27.0 °F 30.34 in Calm   1.2 mph 93 % 0.00 in 0.0 W/m2 CLR
01:03 28.8 °F 27.0 °F 30.33 in Calm     93 % 0.00 in 0.0 W/m2 CLR
01:08 28.8 °F 27.0 °F 30.33 in Calm     93 % 0.00 in 0.0 W/m2 CLR
01:13 28.7 °F 26.9 °F 30.33 in Calm     93 % 0.00 in 0.0 W/m2 CLR
01:18 28.8 °F 27.0 °F 30.33 in North 0.1 mph   93 % 0.00 in 0.0 W/m2 CLR
01:23 28.7 °F 26.9 °F 30.33 in Calm     93 % 0.00 in 0.0 W/m2 CLR
01:28 28.8 °F 27.0 °F 30.33 in Calm     93 % 0.00 in 0.0 W/m2 CLR
01:33 28.8 °F 27.0 °F 30.33 in NW 0.7 mph 2.3 mph 93 % 0.00 in 0.0 W/m2 CLR
01:38 28.9 °F 27.1 °F 30.33 in NW 0.3 mph   93 % 0.00 in 0.0 W/m2 CLR
01:43 28.8 °F 27.0 °F 30.33 in NW 0.4 mph 1.2 mph 93 % 0.00 in 0.0 W/m2 CLR
01:48 28.8 °F 27.0 °F 30.33 in WSW 1.3 mph 3.5 mph 93 % 0.00 in 0.0 W/m2 CLR
01:53 28.8 °F 27.0 °F 30.33 in WSW 0.6 mph 2.3 mph 93 % 0.00 in 0.0 W/m2 CLR
01:58 28.8 °F 27.0 °F 30.33 in WSW 1.3 mph 2.3 mph 93 % 0.00 in 0.0 W/m2 CLR
02:03 28.8 °F 27.0 °F 30.33 in WSW 0.4 mph 3.5 mph 93 % 0.00 in 0.0 W/m2 CLR
02:08 28.8 °F 27.0 °F 30.33 in WSW 0.3 mph 3.5 mph 93 % 0.00 in 0.0 W/m2 CLR
02:13 28.8 °F 27.0 °F 30.33 in WSW 0.8 mph 3.5 mph 93 % 0.00 in 0.0 W/m2 CLR
02:19 28.9 °F 27.1 °F 30.33 in Calm     93 % 0.00 in 0.0 W/m2 CLR
02:23 28.9 °F 27.1 °F 30.33 in West 0.6 mph 2.3 mph 93 % 0.00 in 0.0 W/m2 CLR
02:29 28.9 °F 27.1 °F 30.33 in West 0.2 mph 1.2 mph 93 % 0.00 in 0.0 W/m2 CLR
02:34 29.0 °F 27.2 °F 30.33 in West 1.6 mph 3.5 mph 93 % 0.00 in 0.0 W/m2 CLR
02:39 29.0 °F 27.2 °F 30.32 in West 0.2 mph 2.3 mph 93 % 0.00 in 0.0 W/m2 CLR
02:44 28.9 °F 27.1 °F 30.32 in Calm     93 % 0.00 in 0.0 W/m2 CLR
02:49 28.8 °F 27.0 °F 30.32 in Calm     93 % 0.00 in 0.0 W/m2 CLR
02:54 28.7 °F 26.9 °F 30.32 in Calm   2.3 mph 93 % 0.00 in 0.0 W/m2 CLR
02:59 28.5 °F 26.7 °F 30.32 in West 0.1 mph 2.0 mph 93 % 0.00 in 0.0 W/m2 CLR
03:04 28.4 °F 26.6 °F 30.32 in Calm     93 % 0.00 in 0.0 W/m2 CLR
03:09 28.1 °F 26.3 °F 30.33 in Calm     93 % 0.00 in 0.0 W/m2 CLR
03:14 28.0 °F 26.2 °F 30.33 in Calm     93 % 0.00 in 0.0 W/m2 CLR
03:19 27.8 °F 26.0 °F 30.33 in Calm     93 % 0.00 in 0.0 W/m2 CLR
03:24 27.6 °F 25.8 °F 30.33 in Calm     93 % 0.00 in 0.0 W/m2 CLR
03:29 27.5 °F 25.7 °F 30.33 in Calm     93 % 0.00 in 0.0 W/m2 CLR
03:34 27.5 °F 25.7 °F 30.33 in Calm     93 % 0.00 in 0.0 W/m2 CLR
03:39 27.3 °F 25.5 °F 30.33 in Calm     93 % 0.00 in 0.0 W/m2 CLR
03:44 27.2 °F 25.4 °F 30.33 in Calm     93 % 0.00 in 0.0 W/m2 CLR
03:49 26.9 °F 25.1 °F 30.33 in Calm     93 % 0.00 in 0.0 W/m2 CLR
03:54 26.8 °F 25.0 °F 30.33 in Calm     93 % 0.00 in 0.0 W/m2 CLR
03:59 26.8 °F 25.0 °F 30.33 in Calm     93 % 0.00 in 0.0 W/m2 CLR
04:04 26.5 °F 24.8 °F 30.33 in Calm     93 % 0.00 in 0.0 W/m2 CLR
04:09 26.3 °F 24.6 °F 30.33 in Calm     93 % 0.00 in 0.0 W/m2 CLR
04:14 26.2 °F 24.5 °F 30.33 in Calm     93 % 0.00 in 0.0 W/m2 CLR
04:19 26.1 °F 24.4 °F 30.33 in Calm     93 % 0.00 in 0.0 W/m2 CLR
04:24 25.9 °F 24.2 °F 30.33 in Calm     93 % 0.00 in 0.0 W/m2 CLR
04:29 25.6 °F 23.9 °F 30.33 in Calm     93 % 0.00 in 0.0 W/m2 CLR
04:34 25.4 °F 23.7 °F 30.33 in Calm     93 % 0.00 in 0.0 W/m2 CLR
04:39 25.4 °F 23.7 °F 30.33 in Calm     93 % 0.00 in 0.0 W/m2 CLR
04:44 25.3 °F 23.6 °F 30.33 in West 1.2 mph 2.3 mph 93 % 0.00 in 0.0 W/m2 CLR
04:49 25.2 °F 23.5 °F 30.33 in Calm     93 % 0.00 in 0.0 W/m2 CLR
04:54 25.1 °F 23.4 °F 30.34 in Calm     93 % 0.00 in 0.0 W/m2 CLR
04:59 24.9 °F 23.2 °F 30.34 in West 0.1 mph 1.2 mph 93 % 0.00 in 0.0 W/m2 CLR
05:04 24.7 °F 23.0 °F 30.34 in Calm     93 % 0.00 in 0.0 W/m2 CLR
05:09 24.5 °F 22.8 °F 30.34 in Calm     93 % 0.00 in 0.0 W/m2 CLR
05:14 24.4 °F 22.7 °F 30.34 in Calm     93 % 0.00 in 0.0 W/m2 CLR
05:19 24.4 °F 22.7 °F 30.34 in Calm     93 % 0.00 in 0.0 W/m2 CLR
05:24 24.4 °F 22.7 °F 30.34 in Calm     93 % 0.00 in 0.0 W/m2 CLR
05:29 24.4 °F 22.7 °F 30.34 in West 1.1 mph 2.3 mph 93 % 0.00 in 0.0 W/m2 CLR
05:34 24.5 °F 22.8 °F 30.34 in West 0.8 mph 2.3 mph 93 % 0.00 in 0.0 W/m2 CLR
05:39 24.6 °F 22.9 °F 30.35 in Calm     93 % 0.00 in 0.0 W/m2 CLR
05:44 24.6 °F 22.9 °F 30.35 in Calm     93 % 0.00 in 0.0 W/m2 CLR
05:49 24.7 °F 23.0 °F 30.35 in Calm     93 % 0.00 in 0.0 W/m2 CLR
05:54 24.6 °F 22.9 °F 30.35 in West 0.5 mph 2.0 mph 93 % 0.00 in 0.0 W/m2 CLR
05:59 24.3 °F 22.6 °F 30.35 in West 2.3 mph 3.5 mph 93 % 0.00 in 0.0 W/m2 CLR
06:04 24.1 °F 22.4 °F 30.35 in WNW 1.4 mph 3.5 mph 93 % 0.00 in 0.0 W/m2 CLR
06:09 24.0 °F 22.3 °F 30.36 in WNW 0.7 mph 2.0 mph 93 % 0.00 in 0.0 W/m2 CLR
06:14 24.0 °F 22.3 °F 30.36 in Calm     93 % 0.00 in 0.0 W/m2 CLR
06:19 24.0 °F 22.3 °F 30.36 in Calm     93 % 0.00 in 0.0 W/m2 CLR
06:24 23.9 °F 22.2 °F 30.36 in WNW 1.2 mph 2.3 mph 93 % 0.00 in 0.0 W/m2 CLR
06:29 23.7 °F 22.0 °F 30.37 in WNW 1.7 mph 3.5 mph 93 % 0.00 in 0.0 W/m2 CLR
06:34 23.5 °F 21.8 °F 30.37 in NW 2.3 mph 3.5 mph 93 % 0.00 in 0.0 W/m2 CLR
06:39 23.3 °F 21.6 °F 30.37 in NW 0.7 mph 1.2 mph 93 % 0.00 in 0.0 W/m2 CLR
06:44 23.3 °F 21.6 °F 30.38 in NW 0.3 mph   93 % 0.00 in 0.0 W/m2 CLR
06:49 23.2 °F 21.5 °F 30.38 in Calm     93 % 0.00 in 0.0 W/m2 CLR
06:54 23.1 °F 21.4 °F 30.38 in NW 0.7 mph 2.3 mph 93 % 0.00 in 0.0 W/m2 CLR
06:59 23.0 °F 21.3 °F 30.38 in Calm     93 % 0.00 in 0.0 W/m2 CLR
07:04 22.9 °F 21.2 °F 30.38 in Calm     93 % 0.00 in 0.0 W/m2 OVC
07:09 22.8 °F 21.1 °F 30.39 in Calm     93 % 0.00 in 0.0 W/m2 OVC
07:14 22.8 °F 21.1 °F 30.39 in Calm     93 % 0.00 in 0.0 W/m2 OVC
07:19 22.7 °F 21.0 °F 30.39 in Calm     93 % 0.00 in 0.0 W/m2 OVC
07:24 22.6 °F 20.9 °F 30.39 in Calm     93 % 0.00 in 0.0 W/m2 OVC
07:29 22.5 °F 20.8 °F 30.39 in Calm     93 % 0.00 in 0.0 W/m2 OVC
07:34 22.4 °F 20.7 °F 30.40 in Calm     93 % 0.00 in 5.0 W/m2 OVC
07:39 22.3 °F 20.6 °F 30.40 in NW 0.3 mph 2.3 mph 93 % 0.00 in 7.0 W/m2 OVC
07:44 22.3 °F 20.6 °F 30.40 in Calm     93 % 0.00 in 14.0 W/m2 CLR
07:49 22.3 °F 20.6 °F 30.41 in Calm   2.3 mph 93 % 0.00 in 25.0 W/m2 CLR
07:54 22.4 °F 20.7 °F 30.41 in NW 0.9 mph 2.3 mph 93 % 0.00 in 26.0 W/m2 CLR
07:59 22.5 °F 20.8 °F 30.41 in NW 1.8 mph 4.6 mph 93 % 0.00 in 32.0 W/m2 CLR
08:04 22.6 °F 20.9 °F 30.41 in NW 0.1 mph 1.2 mph 93 % 0.00 in 42.0 W/m2 CLR
08:09 22.8 °F 21.1 °F 30.42 in Calm     93 % 0.00 in 32.0 W/m2 FEW
08:14 23.0 °F 21.3 °F 30.42 in Calm     93 % 0.00 in 30.0 W/m2 BKN
08:19 23.2 °F 21.5 °F 30.43 in Calm     93 % 0.00 in 42.0 W/m2 SCT
08:24 23.4 °F 21.7 °F 30.43 in NW 1.1 mph 2.3 mph 93 % 0.00 in 26.0 W/m2 BKN
08:29 23.7 °F 22.0 °F 30.43 in NW 0.2 mph 1.2 mph 93 % 0.00 in 46.0 W/m2 SCT
08:34 24.0 °F 22.3 °F 30.43 in Calm     93 % 0.00 in 51.0 W/m2 SCT
08:39 24.3 °F 22.8 °F 30.43 in Calm   2.3 mph 94 % 0.00 in 47.0 W/m2 BKN
08:45 24.7 °F 23.2 °F 30.43 in Calm   1.2 mph 94 % 0.00 in 72.0 W/m2 BKN
08:50 25.2 °F 23.7 °F 30.44 in NW 2.0 mph 3.5 mph 94 % 0.00 in 40.0 W/m2 OVC
08:55 26.3 °F 24.8 °F 30.43 in Calm   1.2 mph 94 % 0.00 in 58.0 W/m2 BKN
09:00 26.9 °F 25.1 °F 30.44 in NW 2.8 mph 4.0 mph 93 % 0.00 in 107.0 W/m2 SCT
09:05 27.3 °F 25.5 °F 30.44 in WNW 2.1 mph 4.6 mph 93 % 0.00 in 114.0 W/m2 SCT
09:10 27.7 °F 25.7 °F 30.44 in NW 0.6 mph 3.5 mph 92 % 0.00 in 100.0 W/m2 SCT
09:15 28.0 °F 25.7 °F 30.44 in Calm   1.2 mph 91 % 0.00 in 137.0 W/m2 SCT
09:20 28.4 °F 25.8 °F 30.44 in NNW 2.0 mph 3.5 mph 90 % 0.00 in 77.0 W/m2 SCT
09:25 28.7 °F 25.9 °F 30.44 in Calm   2.3 mph 89 % 0.00 in 95.0 W/m2 BKN
09:30 28.9 °F 25.5 °F 30.44 in NNW 3.6 mph 4.0 mph 87 % 0.00 in 105.0 W/m2 SCT
09:35 29.2 °F 25.5 °F 30.44 in NW 3.0 mph 6.9 mph 86 % 0.00 in 127.0 W/m2 SCT
09:40 29.3 °F 25.1 °F 30.44 in NW 7.0 mph 12.0 mph 84 % 0.00 in 121.0 W/m2 BKN
09:45 29.4 °F 24.6 °F 30.45 in NW 5.6 mph 8.1 mph 82 % 0.00 in 128.0 W/m2 SCT
09:50 29.7 °F 24.6 °F 30.45 in NNW 5.2 mph 9.2 mph 81 % 0.00 in 153.0 W/m2 SCT
09:55 29.9 °F 24.2 °F 30.45 in NW 2.3 mph 3.5 mph 79 % 0.00 in 141.0 W/m2 SCT
10:00 30.2 °F 24.5 °F 30.45 in NW 4.9 mph 4.9 mph 79 % 0.00 in 120.0 W/m2 BKN
10:05 30.2 °F 24.2 °F 30.45 in NW 7.4 mph 11.5 mph 78 % 0.00 in 128.0 W/m2 BKN
10:10 30.4 °F 24.1 °F 30.45 in NW 4.2 mph 8.1 mph 77 % 0.00 in 79.0 W/m2 BKN
10:15 30.4 °F 24.1 °F 30.45 in NNW 6.1 mph 9.2 mph 77 % 0.00 in 107.0 W/m2 BKN
10:20 30.3 °F 23.6 °F 30.45 in NW 6.0 mph 11.5 mph 76 % 0.00 in 178.0 W/m2 SCT
10:25 30.5 °F 23.8 °F 30.45 in NNW 7.1 mph 10.4 mph 76 % 0.00 in 128.0 W/m2 BKN
10:30 30.6 °F 23.6 °F 30.45 in NNW 3.0 mph 5.0 mph 75 % 0.00 in 160.0 W/m2 BKN
10:35 31.0 °F 24.0 °F 30.45 in North 3.8 mph 5.8 mph 75 % 0.00 in 116.0 W/m2 BKN
10:40 31.3 °F 24.3 °F 30.45 in NW 3.0 mph 5.8 mph 75 % 0.00 in 118.0 W/m2 BKN
10:45 31.2 °F 23.5 °F 30.45 in NNW 4.5 mph 9.2 mph 73 % 0.00 in 127.0 W/m2 BKN
10:50 31.3 °F 23.3 °F 30.45 in NW 2.0 mph 6.0 mph 72 % 0.00 in 125.0 W/m2 BKN
10:55 31.5 °F 23.5 °F 30.45 in NW 4.8 mph 10.4 mph 72 % 0.00 in 141.0 W/m2 BKN
11:00 31.6 °F 23.3 °F 30.44 in WNW 5.7 mph 9.2 mph 71 % 0.00 in 118.0 W/m2 BKN
11:05 31.9 °F 23.9 °F 30.44 in NNW 2.6 mph 6.0 mph 72 % 0.00 in 183.0 W/m2 SCT
11:10 31.8 °F 23.1 °F 30.44 in WNW 4.9 mph 9.0 mph 70 % 0.00 in 204.0 W/m2 SCT
11:15 32.0 °F 23.3 °F 30.44 in NW 6.4 mph 11.5 mph 70 % 0.00 in 281.0 W/m2 FEW
11:20 32.3 °F 23.6 °F 30.44 in NW 1.5 mph 3.5 mph 70 % 0.00 in 267.0 W/m2 SCT
11:25 32.3 °F 23.3 °F 30.44 in NW 3.0 mph 3.5 mph 69 % 0.00 in 360.0 W/m2 CLR
11:30 32.5 °F 23.8 °F 30.43 in NW 5.8 mph 10.4 mph 70 % 0.00 in 408.0 W/m2 CLR
11:35 32.5 °F 23.1 °F 30.43 in NW 3.4 mph 5.8 mph 68 % 0.00 in 454.0 W/m2 CLR
11:40 32.9 °F 23.8 °F 30.43 in NW 5.1 mph 9.2 mph 69 % 0.00 in 329.0 W/m2 CLR
11:45 33.2 °F 24.1 °F 30.43 in NNW 5.6 mph 9.2 mph 69 % 0.01 in 334.0 W/m2 RA
11:50 33.1 °F 23.7 °F 30.42 in NNW 4.5 mph 8.1 mph 68 % 0.01 in 360.0 W/m2 RA
11:55 33.3 °F 24.2 °F 30.42 in NNW 3.3 mph 5.8 mph 69 % 0.01 in 403.0 W/m2 CLR
12:00 33.9 °F 24.4 °F 30.42 in NNW 4.4 mph 8.1 mph 68 % 0.01 in 385.0 W/m2 CLR
12:05 33.7 °F 24.3 °F 30.42 in NW 3.9 mph 11.5 mph 68 % 0.01 in 438.0 W/m2 CLR
12:10 33.8 °F 24.4 °F 30.41 in WNW 2.8 mph 4.6 mph 68 % 0.01 in 455.0 W/m2 CLR
12:15 33.9 °F 23.7 °F 30.41 in WNW 7.2 mph 10.4 mph 66 % 0.01 in 452.0 W/m2 CLR
12:20 33.8 °F 24.0 °F 30.41 in West 3.8 mph 11.5 mph 67 % 0.01 in 478.0 W/m2 CLR
12:25 34.0 °F 24.2 °F 30.41 in NW 5.0 mph 8.1 mph 67 % 0.01 in 469.0 W/m2 CLR
12:30 34.0 °F 23.5 °F 30.40 in West 6.0 mph 8.1 mph 65 % 0.01 in 404.0 W/m2 CLR
12:35 34.4 °F 24.2 °F 30.40 in NW 4.7 mph 8.1 mph 66 % 0.01 in 459.0 W/m2 CLR
12:40 34.7 °F 24.1 °F 30.40 in WNW 5.8 mph 9.2 mph 65 % 0.02 in 476.0 W/m2 RA
12:45 35.0 °F 24.8 °F 30.39 in WNW 3.6 mph 9.2 mph 66 % 0.01 in 466.0 W/m2 RA
12:50 35.2 °F 24.2 °F 30.39 in NW 7.1 mph 12.7 mph 64 % 0.01 in 483.0 W/m2 CLR
12:55 35.2 °F 24.6 °F 30.39 in NNW 6.5 mph 11.5 mph 65 % 0.02 in 492.0 W/m2 RA
13:00 35.1 °F 24.5 °F 30.39 in West 4.2 mph 11.5 mph 65 % 0.02 in 471.0 W/m2 RA
13:05 35.2 °F 24.6 °F 30.39 in NW 5.8 mph 12.0 mph 65 % 0.02 in 457.0 W/m2 CLR
13:11 35.3 °F 24.3 °F 30.40 in NW 4.2 mph 11.5 mph 64 % 0.03 in 469.0 W/m2 RA
13:16 35.4 °F 24.0 °F 30.39 in WNW 3.5 mph 5.8 mph 63 % 0.03 in 478.0 W/m2 RA
13:21 35.5 °F 24.5 °F 30.39 in West 5.8 mph 8.0 mph 64 % 0.03 in 399.0 W/m2 CLR
13:26 35.5 °F 24.5 °F 30.39 in WNW 6.1 mph 8.1 mph 64 % 0.04 in 418.0 W/m2 RA
13:31 35.9 °F 24.9 °F 30.39 in WNW 4.9 mph 10.4 mph 64 % 0.04 in 403.0 W/m2 RA
13:36 36.1 °F 24.7 °F 30.38 in North 5.6 mph 9.2 mph 63 % 0.04 in 420.0 W/m2 CLR
13:41 35.9 °F 24.1 °F 30.38 in WNW 7.4 mph 9.2 mph 62 % 0.03 in 367.0 W/m2 CLR
13:46 36.2 °F 24.8 °F 30.38 in NNW 7.5 mph 11.5 mph 63 % 0.04 in 459.0 W/m2 RA
13:51 36.3 °F 24.1 °F 30.38 in NW 3.4 mph 11.5 mph 61 % 0.04 in 452.0 W/m2 RA
13:56 36.4 °F 24.2 °F 30.38 in NW 8.4 mph 11.5 mph 61 % 0.03 in 452.0 W/m2 CLR
14:01 36.1 °F 23.1 °F 30.38 in NW 5.2 mph 9.2 mph 59 % 0.03 in 411.0 W/m2 CLR
14:06 36.4 °F 24.2 °F 30.38 in NW 7.3 mph 11.5 mph 61 % 0.02 in 404.0 W/m2 CLR
14:11 36.3 °F 23.7 °F 30.38 in NW 7.2 mph 10.4 mph 60 % 0.02 in 369.0 W/m2 CLR
14:16 36.1 °F 23.5 °F 30.38 in NNW 5.5 mph 9.2 mph 60 % 0.02 in 322.0 W/m2 CLR
14:21 36.1 °F 23.9 °F 30.38 in NNW 4.0 mph 5.8 mph 61 % 0.03 in 338.0 W/m2 RA
14:26 36.2 °F 23.6 °F 30.38 in NW 6.7 mph 9.2 mph 60 % 0.02 in 320.0 W/m2 RA
14:31 36.1 °F 23.5 °F 30.38 in North 4.5 mph 8.1 mph 60 % 0.02 in 241.0 W/m2 CLR
14:36 35.9 °F 23.4 °F 30.38 in NW 3.6 mph 5.0 mph 60 % 0.02 in 279.0 W/m2 CLR
14:41 35.9 °F 23.4 °F 30.38 in WNW 5.2 mph 11.0 mph 60 % 0.01 in 193.0 W/m2 SCT
14:46 35.9 °F 23.7 °F 30.39 in WNW 4.0 mph 5.8 mph 61 % 0.01 in 260.0 W/m2 CLR
14:51 36.1 °F 23.5 °F 30.39 in NW 4.3 mph 6.9 mph 60 % 0.01 in 174.0 W/m2 FEW
14:56 35.9 °F 23.4 °F 30.39 in WNW 1.9 mph 4.0 mph 60 % 0.01 in 127.0 W/m2 SCT
15:01 35.4 °F 22.9 °F 30.39 in WNW 5.0 mph 9.2 mph 60 % 0.01 in 100.0 W/m2 BKN
15:06 35.1 °F 23.0 °F 30.38 in Calm     61 % 0.02 in 114.0 W/m2 RA
15:11 35.2 °F 23.5 °F 30.38 in WNW 2.1 mph 3.5 mph 62 % 0.02 in 105.0 W/m2 RA
15:16 34.9 °F 22.8 °F 30.38 in WNW 2.9 mph 7.0 mph 61 % 0.02 in 88.0 W/m2 BKN
15:21 34.8 °F 23.1 °F 30.38 in NW 3.6 mph 5.8 mph 62 % 0.01 in 81.0 W/m2 BKN
15:26 34.7 °F 23.0 °F 30.38 in NW 4.3 mph 9.2 mph 62 % 0.01 in 67.0 W/m2 BKN
15:31 34.5 °F 22.8 °F 30.38 in NW 4.7 mph 8.1 mph 62 % 0.01 in 56.0 W/m2 BKN
15:36 34.3 °F 22.6 °F 30.38 in WNW 3.3 mph 6.9 mph 62 % 0.01 in 49.0 W/m2 BKN
15:41 34.3 °F 23.0 °F 30.38 in West 3.2 mph 4.0 mph 63 % 0.01 in 40.0 W/m2 BKN
15:46 34.1 °F 22.4 °F 30.39 in WNW 3.2 mph 6.9 mph 62 % 0.01 in 33.0 W/m2 OVC
15:51 34.0 °F 22.3 °F 30.39 in WNW 1.2 mph 4.6 mph 62 % 0.01 in 30.0 W/m2 OVC
15:56 33.9 °F 22.6 °F 30.39 in WNW 2.2 mph 3.5 mph 63 % 0.01 in 28.0 W/m2 OVC
16:01 33.7 °F 22.8 °F 30.39 in NW 1.9 mph 5.0 mph 64 % 0.01 in 26.0 W/m2 BKN
16:06 33.4 °F 22.5 °F 30.39 in NW 3.5 mph 5.8 mph 64 % 0.00 in 26.0 W/m2 BKN
16:11 33.2 °F 22.7 °F 30.39 in NW 2.2 mph 4.0 mph 65 % 0.00 in 21.0 W/m2 BKN
16:16 33.2 °F 22.7 °F 30.39 in WNW 2.1 mph 5.0 mph 65 % 0.00 in 19.0 W/m2 BKN
16:21 33.1 °F 22.6 °F 30.39 in NW 2.6 mph 6.9 mph 65 % 0.00 in 18.0 W/m2 BKN
16:26 32.9 °F 22.4 °F 30.39 in WNW 2.8 mph 4.6 mph 65 % 0.00 in 14.0 W/m2 BKN
16:31 32.8 °F 22.7 °F 30.39 in WNW 2.4 mph 3.5 mph 66 % 0.00 in 14.0 W/m2 BKN
16:36 32.8 °F 22.7 °F 30.39 in Calm     66 % 0.00 in 19.0 W/m2 FEW
16:41 32.7 °F 22.6 °F 30.39 in Calm     66 % 0.00 in 14.0 W/m2 FEW
16:46 32.5 °F 22.4 °F 30.39 in Calm     66 % 0.00 in 11.0 W/m2 CLR
16:51 32.4 °F 22.7 °F 30.40 in Calm     67 % 0.00 in 7.0 W/m2 CLR
16:56 32.2 °F 22.5 °F 30.39 in Calm     67 % 0.00 in 0.0 W/m2 OVC
17:01 32.0 °F 22.6 °F 30.39 in Calm     68 % 0.00 in 0.0 W/m2 OVC
17:07 31.5 °F 22.1 °F 30.39 in Calm     68 % 0.00 in 0.0 W/m2 OVC
17:12 31.2 °F 22.2 °F 30.39 in Calm     69 % 0.00 in 0.0 W/m2 OVC
17:17 30.9 °F 22.3 °F 30.39 in Calm     70 % 0.00 in 0.0 W/m2 OVC
17:22 30.8 °F 22.5 °F 30.40 in Calm     71 % 0.00 in 0.0 W/m2 OVC
17:27 30.2 °F 21.9 °F 30.41 in Calm     71 % 0.00 in 0.0 W/m2 OVC
17:32 29.8 °F 21.9 °F 30.40 in Calm     72 % 0.00 in 0.0 W/m2 CLR
17:37 30.2 °F 22.3 °F 30.40 in NW 2.7 mph 3.5 mph 72 % 0.00 in 0.0 W/m2 CLR
17:42 30.4 °F 22.4 °F 30.41 in NW 0.6 mph 3.5 mph 72 % 0.00 in 0.0 W/m2 CLR
17:47 30.5 °F 22.5 °F 30.41 in Calm     72 % 0.00 in 0.0 W/m2 CLR
17:52 30.3 °F 22.4 °F 30.41 in Calm     72 % 0.00 in 0.0 W/m2 CLR
17:57 30.0 °F 22.1 °F 30.41 in Calm     72 % 0.00 in 0.0 W/m2 CLR
18:02 30.0 °F 22.4 °F 30.41 in Calm     73 % 0.00 in 0.0 W/m2 CLR
18:07 29.8 °F 22.2 °F 30.41 in Calm     73 % 0.00 in 0.0 W/m2 CLR
18:12 29.2 °F 21.6 °F 30.41 in Calm     73 % 0.00 in 0.0 W/m2 CLR
18:17 29.4 °F 22.1 °F 30.42 in Calm     74 % 0.00 in 0.0 W/m2 CLR
18:22 29.2 °F 21.9 °F 30.41 in Calm     74 % 0.00 in 0.0 W/m2 CLR
18:27 29.0 °F 21.7 °F 30.42 in Calm     74 % 0.00 in 0.0 W/m2 CLR
18:32 28.7 °F 21.8 °F 30.42 in Calm     75 % 0.00 in 0.0 W/m2 CLR
18:37 28.5 °F 21.6 °F 30.42 in Calm     75 % 0.00 in 0.0 W/m2 CLR
18:42 28.5 °F 21.9 °F 30.42 in Calm     76 % 0.00 in 0.0 W/m2 CLR
18:47 28.4 °F 21.8 °F 30.42 in Calm     76 % 0.00 in 0.0 W/m2 CLR
18:52 28.3 °F 21.7 °F 30.42 in Calm     76 % 0.00 in 0.0 W/m2 CLR
18:57 27.8 °F 21.2 °F 30.42 in Calm     76 % 0.00 in 0.0 W/m2 CLR
19:02 27.6 °F 21.6 °F 30.42 in Calm     78 % 0.00 in 0.0 W/m2 CLR
19:07 27.7 °F 21.7 °F 30.42 in Calm     78 % 0.00 in 0.0 W/m2 CLR
19:12 27.8 °F 21.8 °F 30.42 in Calm     78 % 0.00 in 0.0 W/m2 CLR
19:17 27.8 °F 21.8 °F 30.42 in Calm     78 % 0.00 in 0.0 W/m2 CLR
19:22 27.6 °F 21.6 °F 30.42 in Calm     78 % 0.00 in 0.0 W/m2 CLR
19:27 27.2 °F 21.2 °F 30.43 in NW 0.2 mph 1.2 mph 78 % 0.00 in 0.0 W/m2 CLR
19:32 27.2 °F 21.2 °F 30.43 in Calm     78 % 0.00 in 0.0 W/m2 CLR
19:37 26.9 °F 21.0 °F 30.42 in Calm     78 % 0.00 in 0.0 W/m2 CLR
19:42 26.8 °F 21.2 °F 30.43 in Calm     79 % 0.00 in 0.0 W/m2 CLR
19:47 26.6 °F 21.0 °F 30.44 in Calm     79 % 0.00 in 0.0 W/m2 CLR
19:52 26.4 °F 20.8 °F 30.44 in Calm   1.2 mph 79 % 0.00 in 0.0 W/m2 CLR
19:57 26.3 °F 21.0 °F 30.44 in Calm     80 % 0.00 in 0.0 W/m2 CLR
20:02 26.3 °F 21.0 °F 30.44 in Calm     80 % 0.00 in 0.0 W/m2 CLR
20:07 26.2 °F 20.6 °F 30.44 in Calm     79 % 0.00 in 0.0 W/m2 CLR
20:12 25.9 °F 20.6 °F 30.45 in Calm     80 % 0.00 in 0.0 W/m2 CLR
20:17 25.9 °F 20.6 °F 30.45 in Calm     80 % 0.00 in 0.0 W/m2 CLR
20:22 26.0 °F 20.7 °F 30.44 in Calm     80 % 0.00 in 0.0 W/m2 CLR
20:27 25.8 °F 20.8 °F 30.44 in Calm     81 % 0.00 in 0.0 W/m2 CLR
20:32 25.8 °F 20.8 °F 30.45 in Calm     81 % 0.00 in 0.0 W/m2 CLR
20:37 26.0 °F 21.0 °F 30.44 in Calm     81 % 0.00 in 0.0 W/m2 CLR
20:42 25.7 °F 20.7 °F 30.44 in Calm     81 % 0.00 in 0.0 W/m2 CLR
20:47 25.4 °F 20.4 °F 30.44 in Calm     81 % 0.00 in 0.0 W/m2 CLR
20:52 25.6 °F 20.9 °F 30.44 in Calm     82 % 0.00 in 0.0 W/m2 CLR
20:57 25.8 °F 21.1 °F 30.44 in Calm     82 % 0.00 in 0.0 W/m2 CLR
21:02 25.7 °F 21.0 °F 30.44 in Calm     82 % 0.00 in 0.0 W/m2 CLR
21:07 25.3 °F 20.6 °F 30.44 in Calm     82 % 0.00 in 0.0 W/m2 CLR
21:13 25.1 °F 20.4 °F 30.44 in Calm     82 % 0.00 in 0.0 W/m2 CLR
21:18 24.9 °F 20.2 °F 30.44 in Calm     82 % 0.00 in 0.0 W/m2 CLR
21:23 24.8 °F 20.1 °F 30.44 in Calm     82 % 0.00 in 0.0 W/m2 CLR
21:28 24.6 °F 20.2 °F 30.44 in Calm     83 % 0.00 in 0.0 W/m2 CLR
21:33 24.5 °F 20.1 °F 30.44 in Calm     83 % 0.00 in 0.0 W/m2 CLR
21:35 24.6 °F 20.2 °F 30.45 in Calm     83 % 0.00 in 0.0 W/m2 CLR
21:40 24.5 °F 20.1 °F 30.44 in Calm     83 % 0.00 in 0.0 W/m2 CLR
21:45 24.3 °F 20.2 °F 30.45 in Calm     84 % 0.00 in 0.0 W/m2 CLR
21:50 24.3 °F 20.2 °F 30.45 in NW 1.8 mph 2.3 mph 84 % 0.00 in 0.0 W/m2 CLR
21:55 24.1 °F 20.0 °F 30.45 in NW 2.6 mph 4.0 mph 84 % 0.00 in 0.0 W/m2 CLR
22:00 24.1 °F 20.0 °F 30.45 in NW 2.5 mph 3.5 mph 84 % 0.00 in 0.0 W/m2 CLR
22:05 24.0 °F 19.9 °F 30.45 in NW 2.7 mph 3.5 mph 84 % 0.00 in 0.0 W/m2 CLR
22:10 23.9 °F 19.8 °F 30.45 in NW 2.3 mph 3.5 mph 84 % 0.00 in 0.0 W/m2 CLR
22:15 23.9 °F 19.8 °F 30.45 in NW 3.5 mph 4.6 mph 84 % 0.00 in 0.0 W/m2 CLR
22:20 23.9 °F 19.8 °F 30.45 in NW 1.6 mph 3.5 mph 84 % 0.00 in 0.0 W/m2 CLR
22:25 23.9 °F 19.8 °F 30.45 in Calm   1.2 mph 84 % 0.00 in 0.0 W/m2 CLR
22:30 23.9 °F 19.8 °F 30.45 in Calm     84 % 0.00 in 0.0 W/m2 CLR
22:31 24.0 °F 19.9 °F 30.45 in Calm     84 % 0.00 in 0.0 W/m2 CLR
22:36 23.8 °F 19.4 °F 30.45 in Calm     83 % 0.00 in 0.0 W/m2 CLR
22:41 23.9 °F 19.8 °F 30.45 in Calm     84 % 0.00 in 0.0 W/m2 CLR
22:46 23.7 °F 19.3 °F 30.45 in Calm     83 % 0.00 in 0.0 W/m2 CLR
22:51 23.4 °F 19.3 °F 30.45 in Calm     84 % 0.00 in 0.0 W/m2 CLR
22:56 23.6 °F 19.5 °F 30.45 in Calm     84 % 0.00 in 0.0 W/m2 CLR
23:01 23.5 °F 19.4 °F 30.45 in Calm     84 % 0.00 in 0.0 W/m2 CLR
23:06 23.2 °F 19.1 °F 30.46 in Calm     84 % 0.00 in 0.0 W/m2 CLR
23:11 23.0 °F 19.2 °F 30.46 in Calm     85 % 0.00 in 0.0 W/m2 CLR
23:16 23.0 °F 19.2 °F 30.46 in Calm     85 % 0.00 in 0.0 W/m2 CLR
23:21 23.1 °F 19.3 °F 30.46 in Calm     85 % 0.00 in 0.0 W/m2 CLR
23:26 22.8 °F 19.0 °F 30.46 in Calm     85 % 0.00 in 0.0 W/m2 CLR
23:31 22.7 °F 18.9 °F 30.46 in Calm     85 % 0.00 in 0.0 W/m2 CLR
23:36 22.8 °F 19.2 °F 30.45 in Calm     86 % 0.00 in 0.0 W/m2 CLR
23:41 23.2 °F 19.6 °F 30.45 in Calm     86 % 0.00 in 0.0 W/m2 CLR
23:46 23.0 °F 19.2 °F 30.45 in Calm     85 % 0.00 in 0.0 W/m2 CLR
23:51 22.7 °F 19.1 °F 30.45 in Calm     86 % 0.00 in 0.0 W/m2 CLR
23:56 22.4 °F 18.8 °F 30.45 in Calm     86 % 0.00 in 0.0 W/m2 CLR
Air Products Campus Weather
Compliments of Weather Underground - 3.5 mb